sensor_id;sensor_type;location;lat;lon;timestamp;P1;durP1;ratioP1;P2;durP2;ratioP2
28529;SDS011;15737;49.760;6.632;2023-04-25T00:00:39;4.70;;;2.67;;
28529;SDS011;15737;49.760;6.632;2023-04-25T00:03:05;4.10;;;2.70;;
28529;SDS011;15737;49.760;6.632;2023-04-25T00:05:30;3.83;;;3.00;;
28529;SDS011;15737;49.760;6.632;2023-04-25T00:07:56;4.67;;;3.63;;
28529;SDS011;15737;49.760;6.632;2023-04-25T00:10:22;5.23;;;3.60;;
28529;SDS011;15737;49.760;6.632;2023-04-25T00:12:48;3.77;;;3.40;;
28529;SDS011;15737;49.760;6.632;2023-04-25T00:15:14;7.50;;;4.10;;
28529;SDS011;15737;49.760;6.632;2023-04-25T00:17:40;5.77;;;3.63;;
28529;SDS011;15737;49.760;6.632;2023-04-25T00:20:05;5.53;;;4.00;;
28529;SDS011;15737;49.760;6.632;2023-04-25T00:22:34;4.70;;;3.63;;
28529;SDS011;15737;49.760;6.632;2023-04-25T00:25:00;5.00;;;3.60;;
28529;SDS011;15737;49.760;6.632;2023-04-25T00:27:26;3.40;;;2.83;;
28529;SDS011;15737;49.760;6.632;2023-04-25T00:29:51;6.57;;;3.57;;
28529;SDS011;15737;49.760;6.632;2023-04-25T00:32:17;4.00;;;2.93;;
28529;SDS011;15737;49.760;6.632;2023-04-25T00:34:43;4.83;;;3.57;;
28529;SDS011;15737;49.760;6.632;2023-04-25T00:37:08;4.20;;;3.00;;
28529;SDS011;15737;49.760;6.632;2023-04-25T00:39:33;5.70;;;3.33;;
28529;SDS011;15737;49.760;6.632;2023-04-25T00:41:59;4.97;;;3.60;;
28529;SDS011;15737;49.760;6.632;2023-04-25T00:44:26;3.50;;;2.90;;
28529;SDS011;15737;49.760;6.632;2023-04-25T00:46:54;4.53;;;3.27;;
28529;SDS011;15737;49.760;6.632;2023-04-25T00:49:20;4.13;;;3.13;;
28529;SDS011;15737;49.760;6.632;2023-04-25T00:51:45;3.83;;;2.97;;
28529;SDS011;15737;49.760;6.632;2023-04-25T00:54:11;3.70;;;3.00;;
28529;SDS011;15737;49.760;6.632;2023-04-25T00:56:37;4.27;;;3.43;;
28529;SDS011;15737;49.760;6.632;2023-04-25T00:59:04;4.27;;;2.83;;
28529;SDS011;15737;49.760;6.632;2023-04-25T01:01:30;4.20;;;3.57;;
28529;SDS011;15737;49.760;6.632;2023-04-25T01:03:56;3.20;;;2.90;;
28529;SDS011;15737;49.760;6.632;2023-04-25T01:06:23;3.97;;;3.57;;
28529;SDS011;15737;49.760;6.632;2023-04-25T01:08:49;3.10;;;2.20;;
28529;SDS011;15737;49.760;6.632;2023-04-25T01:11:15;5.23;;;3.17;;
28529;SDS011;15737;49.760;6.632;2023-04-25T01:13:41;6.57;;;3.73;;
28529;SDS011;15737;49.760;6.632;2023-04-25T01:16:07;2.97;;;2.53;;
28529;SDS011;15737;49.760;6.632;2023-04-25T01:18:32;3.70;;;2.93;;
28529;SDS011;15737;49.760;6.632;2023-04-25T01:21:06;4.97;;;3.53;;
28529;SDS011;15737;49.760;6.632;2023-04-25T01:23:36;3.43;;;3.07;;
28529;SDS011;15737;49.760;6.632;2023-04-25T01:26:06;3.33;;;2.30;;
28529;SDS011;15737;49.760;6.632;2023-04-25T01:28:33;3.13;;;2.50;;
28529;SDS011;15737;49.760;6.632;2023-04-25T01:30:59;3.53;;;2.77;;
28529;SDS011;15737;49.760;6.632;2023-04-25T01:33:25;4.73;;;3.57;;
28529;SDS011;15737;49.760;6.632;2023-04-25T01:35:51;2.87;;;2.53;;
28529;SDS011;15737;49.760;6.632;2023-04-25T01:38:17;4.20;;;2.87;;
28529;SDS011;15737;49.760;6.632;2023-04-25T01:40:42;4.13;;;3.27;;
28529;SDS011;15737;49.760;6.632;2023-04-25T01:43:10;4.57;;;3.10;;
28529;SDS011;15737;49.760;6.632;2023-04-25T01:45:37;4.33;;;2.97;;
28529;SDS011;15737;49.760;6.632;2023-04-25T01:48:10;3.67;;;3.00;;
28529;SDS011;15737;49.760;6.632;2023-04-25T01:50:37;4.77;;;3.73;;
28529;SDS011;15737;49.760;6.632;2023-04-25T01:53:03;5.37;;;3.77;;
28529;SDS011;15737;49.760;6.632;2023-04-25T01:55:29;7.03;;;3.83;;
28529;SDS011;15737;49.760;6.632;2023-04-25T01:57:55;3.23;;;2.50;;
28529;SDS011;15737;49.760;6.632;2023-04-25T02:00:21;3.40;;;3.07;;
28529;SDS011;15737;49.760;6.632;2023-04-25T02:02:46;5.27;;;3.53;;
28529;SDS011;15737;49.760;6.632;2023-04-25T02:05:13;3.57;;;2.37;;
28529;SDS011;15737;49.760;6.632;2023-04-25T02:07:38;5.43;;;3.23;;
28529;SDS011;15737;49.760;6.632;2023-04-25T02:10:04;3.50;;;2.60;;
28529;SDS011;15737;49.760;6.632;2023-04-25T02:12:30;3.20;;;2.43;;
28529;SDS011;15737;49.760;6.632;2023-04-25T02:14:56;6.17;;;3.73;;
28529;SDS011;15737;49.760;6.632;2023-04-25T02:17:21;2.83;;;2.13;;
28529;SDS011;15737;49.760;6.632;2023-04-25T02:19:47;4.63;;;2.93;;
28529;SDS011;15737;49.760;6.632;2023-04-25T02:22:13;3.07;;;2.77;;
28529;SDS011;15737;49.760;6.632;2023-04-25T02:24:39;3.60;;;2.60;;
28529;SDS011;15737;49.760;6.632;2023-04-25T02:27:04;3.90;;;2.47;;
28529;SDS011;15737;49.760;6.632;2023-04-25T02:29:30;3.43;;;2.90;;
28529;SDS011;15737;49.760;6.632;2023-04-25T02:31:56;4.07;;;2.93;;
28529;SDS011;15737;49.760;6.632;2023-04-25T02:34:21;5.07;;;3.20;;
28529;SDS011;15737;49.760;6.632;2023-04-25T02:36:48;4.23;;;3.00;;
28529;SDS011;15737;49.760;6.632;2023-04-25T02:39:15;4.57;;;3.10;;
28529;SDS011;15737;49.760;6.632;2023-04-25T02:41:41;4.70;;;3.00;;
28529;SDS011;15737;49.760;6.632;2023-04-25T02:44:07;2.87;;;2.07;;
28529;SDS011;15737;49.760;6.632;2023-04-25T02:46:32;3.23;;;2.67;;
28529;SDS011;15737;49.760;6.632;2023-04-25T02:48:58;7.30;;;2.73;;
28529;SDS011;15737;49.760;6.632;2023-04-25T02:51:23;4.23;;;3.80;;
28529;SDS011;15737;49.760;6.632;2023-04-25T02:53:49;7.07;;;3.43;;
28529;SDS011;15737;49.760;6.632;2023-04-25T02:56:14;2.93;;;2.47;;
28529;SDS011;15737;49.760;6.632;2023-04-25T02:58:40;3.70;;;2.33;;
28529;SDS011;15737;49.760;6.632;2023-04-25T03:01:05;5.53;;;3.53;;
28529;SDS011;15737;49.760;6.632;2023-04-25T03:03:31;3.67;;;2.53;;
28529;SDS011;15737;49.760;6.632;2023-04-25T03:05:56;3.57;;;3.07;;
28529;SDS011;15737;49.760;6.632;2023-04-25T03:08:22;5.10;;;2.50;;
28529;SDS011;15737;49.760;6.632;2023-04-25T03:10:47;2.97;;;2.67;;
28529;SDS011;15737;49.760;6.632;2023-04-25T03:13:15;4.60;;;3.20;;
28529;SDS011;15737;49.760;6.632;2023-04-25T03:15:40;5.57;;;3.53;;
28529;SDS011;15737;49.760;6.632;2023-04-25T03:18:06;3.97;;;3.30;;
28529;SDS011;15737;49.760;6.632;2023-04-25T03:20:31;3.80;;;3.07;;
28529;SDS011;15737;49.760;6.632;2023-04-25T03:22:57;5.07;;;4.00;;
28529;SDS011;15737;49.760;6.632;2023-04-25T03:25:22;4.13;;;2.37;;
28529;SDS011;15737;49.760;6.632;2023-04-25T03:27:48;3.70;;;3.00;;
28529;SDS011;15737;49.760;6.632;2023-04-25T03:30:13;6.40;;;3.37;;
28529;SDS011;15737;49.760;6.632;2023-04-25T03:32:39;3.57;;;3.27;;
28529;SDS011;15737;49.760;6.632;2023-04-25T03:35:04;4.40;;;3.40;;
28529;SDS011;15737;49.760;6.632;2023-04-25T03:37:30;4.20;;;3.27;;
28529;SDS011;15737;49.760;6.632;2023-04-25T03:39:56;5.03;;;3.63;;
28529;SDS011;15737;49.760;6.632;2023-04-25T03:42:21;5.17;;;3.87;;
28529;SDS011;15737;49.760;6.632;2023-04-25T03:44:48;5.60;;;3.93;;
28529;SDS011;15737;49.760;6.632;2023-04-25T03:47:14;5.53;;;3.73;;
28529;SDS011;15737;49.760;6.632;2023-04-25T03:49:39;3.93;;;3.00;;
28529;SDS011;15737;49.760;6.632;2023-04-25T03:52:06;3.40;;;2.97;;
28529;SDS011;15737;49.760;6.632;2023-04-25T03:54:31;5.27;;;2.77;;
28529;SDS011;15737;49.760;6.632;2023-04-25T03:56:57;5.80;;;4.10;;
28529;SDS011;15737;49.760;6.632;2023-04-25T03:59:22;4.30;;;3.30;;
28529;SDS011;15737;49.760;6.632;2023-04-25T04:01:48;3.33;;;2.90;;
28529;SDS011;15737;49.760;6.632;2023-04-25T04:04:13;4.40;;;3.47;;
28529;SDS011;15737;49.760;6.632;2023-04-25T04:06:39;5.67;;;2.90;;
28529;SDS011;15737;49.760;6.632;2023-04-25T04:09:05;5.40;;;3.60;;
28529;SDS011;15737;49.760;6.632;2023-04-25T04:11:34;4.20;;;2.53;;
28529;SDS011;15737;49.760;6.632;2023-04-25T04:14:01;4.37;;;2.90;;
28529;SDS011;15737;49.760;6.632;2023-04-25T04:16:27;5.27;;;2.50;;
28529;SDS011;15737;49.760;6.632;2023-04-25T04:18:52;5.13;;;3.37;;
28529;SDS011;15737;49.760;6.632;2023-04-25T04:21:18;4.73;;;3.13;;
28529;SDS011;15737;49.760;6.632;2023-04-25T04:23:43;2.77;;;2.37;;
28529;SDS011;15737;49.760;6.632;2023-04-25T04:26:09;2.47;;;2.27;;
28529;SDS011;15737;49.760;6.632;2023-04-25T04:28:36;3.20;;;2.43;;
28529;SDS011;15737;49.760;6.632;2023-04-25T04:31:02;3.57;;;2.67;;
28529;SDS011;15737;49.760;6.632;2023-04-25T04:33:28;3.43;;;2.33;;
28529;SDS011;15737;49.760;6.632;2023-04-25T04:35:55;5.40;;;2.53;;
28529;SDS011;15737;49.760;6.632;2023-04-25T04:38:21;4.10;;;3.00;;
28529;SDS011;15737;49.760;6.632;2023-04-25T04:40:47;2.70;;;2.43;;
28529;SDS011;15737;49.760;6.632;2023-04-25T04:43:13;3.50;;;2.37;;
28529;SDS011;15737;49.760;6.632;2023-04-25T04:45:39;1.60;;;1.50;;
28529;SDS011;15737;49.760;6.632;2023-04-25T04:48:05;2.83;;;2.03;;
28529;SDS011;15737;49.760;6.632;2023-04-25T04:50:31;2.97;;;2.40;;
28529;SDS011;15737;49.760;6.632;2023-04-25T04:53:00;2.73;;;2.37;;
28529;SDS011;15737;49.760;6.632;2023-04-25T04:55:26;3.03;;;2.50;;
28529;SDS011;15737;49.760;6.632;2023-04-25T04:57:52;2.20;;;2.07;;
28529;SDS011;15737;49.760;6.632;2023-04-25T05:00:17;2.40;;;2.07;;
28529;SDS011;15737;49.760;6.632;2023-04-25T05:02:43;2.00;;;1.90;;
28529;SDS011;15737;49.760;6.632;2023-04-25T05:05:08;6.13;;;2.03;;
28529;SDS011;15737;49.760;6.632;2023-04-25T05:07:34;2.73;;;2.50;;
28529;SDS011;15737;49.760;6.632;2023-04-25T05:10:00;2.60;;;2.10;;
28529;SDS011;15737;49.760;6.632;2023-04-25T05:12:25;2.60;;;2.03;;
28529;SDS011;15737;49.760;6.632;2023-04-25T05:14:51;2.30;;;1.83;;
28529;SDS011;15737;49.760;6.632;2023-04-25T05:17:16;2.77;;;2.50;;
28529;SDS011;15737;49.760;6.632;2023-04-25T05:19:42;3.23;;;1.93;;
28529;SDS011;15737;49.760;6.632;2023-04-25T05:22:07;2.70;;;2.30;;
28529;SDS011;15737;49.760;6.632;2023-04-25T05:24:33;3.93;;;2.27;;
28529;SDS011;15737;49.760;6.632;2023-04-25T05:26:58;2.87;;;2.47;;
28529;SDS011;15737;49.760;6.632;2023-04-25T05:29:24;2.67;;;2.33;;
28529;SDS011;15737;49.760;6.632;2023-04-25T05:31:49;4.00;;;2.10;;
28529;SDS011;15737;49.760;6.632;2023-04-25T05:34:15;3.27;;;2.70;;
28529;SDS011;15737;49.760;6.632;2023-04-25T05:36:41;3.57;;;2.97;;
28529;SDS011;15737;49.760;6.632;2023-04-25T05:39:07;2.73;;;2.03;;
28529;SDS011;15737;49.760;6.632;2023-04-25T05:41:33;2.30;;;2.10;;
28529;SDS011;15737;49.760;6.632;2023-04-25T05:43:59;2.80;;;2.27;;
28529;SDS011;15737;49.760;6.632;2023-04-25T05:46:24;4.50;;;2.70;;
28529;SDS011;15737;49.760;6.632;2023-04-25T05:48:50;4.43;;;2.77;;
28529;SDS011;15737;49.760;6.632;2023-04-25T05:51:15;3.03;;;2.73;;
28529;SDS011;15737;49.760;6.632;2023-04-25T05:53:43;4.53;;;2.97;;
28529;SDS011;15737;49.760;6.632;2023-04-25T05:56:08;2.63;;;2.17;;
28529;SDS011;15737;49.760;6.632;2023-04-25T05:58:34;3.23;;;2.67;;
28529;SDS011;15737;49.760;6.632;2023-04-25T06:00:59;3.77;;;3.27;;
28529;SDS011;15737;49.760;6.632;2023-04-25T06:03:25;3.70;;;3.23;;
28529;SDS011;15737;49.760;6.632;2023-04-25T06:05:50;4.50;;;3.70;;
28529;SDS011;15737;49.760;6.632;2023-04-25T06:08:16;4.47;;;3.30;;
28529;SDS011;15737;49.760;6.632;2023-04-25T06:10:41;5.70;;;3.53;;
28529;SDS011;15737;49.760;6.632;2023-04-25T06:13:07;2.97;;;2.67;;
28529;SDS011;15737;49.760;6.632;2023-04-25T06:15:33;5.43;;;3.13;;
28529;SDS011;15737;49.760;6.632;2023-04-25T06:17:58;3.50;;;2.00;;
28529;SDS011;15737;49.760;6.632;2023-04-25T06:20:24;4.43;;;2.33;;
28529;SDS011;15737;49.760;6.632;2023-04-25T06:22:50;6.20;;;4.30;;
28529;SDS011;15737;49.760;6.632;2023-04-25T06:25:16;2.70;;;2.40;;
28529;SDS011;15737;49.760;6.632;2023-04-25T06:27:45;4.23;;;2.93;;
28529;SDS011;15737;49.760;6.632;2023-04-25T06:30:10;2.77;;;2.30;;
28529;SDS011;15737;49.760;6.632;2023-04-25T06:32:37;3.13;;;2.63;;
28529;SDS011;15737;49.760;6.632;2023-04-25T06:35:03;4.07;;;3.07;;
28529;SDS011;15737;49.760;6.632;2023-04-25T06:37:29;4.53;;;2.63;;
28529;SDS011;15737;49.760;6.632;2023-04-25T06:39:55;2.60;;;2.20;;
28529;SDS011;15737;49.760;6.632;2023-04-25T06:42:20;5.00;;;3.33;;
28529;SDS011;15737;49.760;6.632;2023-04-25T06:44:46;3.50;;;2.90;;
28529;SDS011;15737;49.760;6.632;2023-04-25T06:47:11;2.67;;;2.37;;
28529;SDS011;15737;49.760;6.632;2023-04-25T06:49:37;2.40;;;2.20;;
28529;SDS011;15737;49.760;6.632;2023-04-25T06:52:02;3.37;;;2.53;;
28529;SDS011;15737;49.760;6.632;2023-04-25T06:54:28;7.13;;;2.30;;
28529;SDS011;15737;49.760;6.632;2023-04-25T06:56:54;4.53;;;3.00;;
28529;SDS011;15737;49.760;6.632;2023-04-25T06:59:21;2.70;;;1.90;;
28529;SDS011;15737;49.760;6.632;2023-04-25T07:01:46;4.57;;;2.97;;
28529;SDS011;15737;49.760;6.632;2023-04-25T07:04:12;4.03;;;2.33;;
28529;SDS011;15737;49.760;6.632;2023-04-25T07:06:37;5.63;;;3.10;;
28529;SDS011;15737;49.760;6.632;2023-04-25T07:09:07;4.87;;;3.30;;
28529;SDS011;15737;49.760;6.632;2023-04-25T07:11:36;1.73;;;1.47;;
28529;SDS011;15737;49.760;6.632;2023-04-25T07:14:02;3.77;;;2.37;;
28529;SDS011;15737;49.760;6.632;2023-04-25T07:16:27;3.27;;;2.73;;
28529;SDS011;15737;49.760;6.632;2023-04-25T07:18:53;4.47;;;2.70;;
28529;SDS011;15737;49.760;6.632;2023-04-25T07:21:19;2.13;;;1.90;;
28529;SDS011;15737;49.760;6.632;2023-04-25T07:23:44;2.27;;;2.07;;
28529;SDS011;15737;49.760;6.632;2023-04-25T07:26:10;2.90;;;2.03;;
28529;SDS011;15737;49.760;6.632;2023-04-25T07:28:35;4.07;;;2.37;;
28529;SDS011;15737;49.760;6.632;2023-04-25T07:31:01;3.27;;;2.97;;
28529;SDS011;15737;49.760;6.632;2023-04-25T07:33:27;4.57;;;2.20;;
28529;SDS011;15737;49.760;6.632;2023-04-25T07:35:53;3.83;;;3.03;;
28529;SDS011;15737;49.760;6.632;2023-04-25T07:38:18;3.23;;;2.33;;
28529;SDS011;15737;49.760;6.632;2023-04-25T07:40:44;6.47;;;2.53;;
28529;SDS011;15737;49.760;6.632;2023-04-25T07:43:10;3.00;;;2.67;;
28529;SDS011;15737;49.760;6.632;2023-04-25T07:45:39;3.70;;;2.53;;
28529;SDS011;15737;49.760;6.632;2023-04-25T07:48:04;5.70;;;3.53;;
28529;SDS011;15737;49.760;6.632;2023-04-25T07:50:30;3.23;;;2.67;;
28529;SDS011;15737;49.760;6.632;2023-04-25T07:52:56;2.43;;;2.10;;
28529;SDS011;15737;49.760;6.632;2023-04-25T07:55:21;5.27;;;2.70;;
28529;SDS011;15737;49.760;6.632;2023-04-25T07:57:47;6.00;;;2.60;;
28529;SDS011;15737;49.760;6.632;2023-04-25T08:00:13;3.93;;;2.20;;
28529;SDS011;15737;49.760;6.632;2023-04-25T08:02:39;2.10;;;1.83;;
28529;SDS011;15737;49.760;6.632;2023-04-25T08:05:06;3.47;;;2.90;;
28529;SDS011;15737;49.760;6.632;2023-04-25T08:07:33;3.43;;;2.50;;
28529;SDS011;15737;49.760;6.632;2023-04-25T08:09:59;3.43;;;3.00;;
28529;SDS011;15737;49.760;6.632;2023-04-25T08:12:28;2.90;;;2.00;;
28529;SDS011;15737;49.760;6.632;2023-04-25T08:14:56;4.80;;;2.60;;
28529;SDS011;15737;49.760;6.632;2023-04-25T08:17:22;1.90;;;1.80;;
28529;SDS011;15737;49.760;6.632;2023-04-25T08:19:53;2.90;;;2.60;;
28529;SDS011;15737;49.760;6.632;2023-04-25T08:22:29;3.03;;;2.30;;
28529;SDS011;15737;49.760;6.632;2023-04-25T08:25:08;4.53;;;3.17;;
28529;SDS011;15737;49.760;6.632;2023-04-25T08:27:49;2.93;;;2.17;;
28529;SDS011;15737;49.760;6.632;2023-04-25T08:30:34;1.93;;;1.70;;
28529;SDS011;15737;49.760;6.632;2023-04-25T08:33:29;2.57;;;2.00;;
28529;SDS011;15737;49.760;6.632;2023-04-25T08:36:20;7.33;;;2.57;;
28529;SDS011;15737;49.760;6.632;2023-04-25T08:38:49;1.83;;;1.40;;
28529;SDS011;15737;49.760;6.632;2023-04-25T08:41:25;1.60;;;1.50;;
28529;SDS011;15737;49.760;6.632;2023-04-25T08:43:53;1.63;;;1.53;;
28529;SDS011;15737;49.760;6.632;2023-04-25T08:46:21;4.47;;;1.67;;
28529;SDS011;15737;49.760;6.632;2023-04-25T08:48:48;2.37;;;2.13;;
28529;SDS011;15737;49.760;6.632;2023-04-25T08:51:15;2.60;;;1.60;;
28529;SDS011;15737;49.760;6.632;2023-04-25T08:53:48;4.70;;;2.27;;
28529;SDS011;15737;49.760;6.632;2023-04-25T08:56:16;1.83;;;1.73;;
28529;SDS011;15737;49.760;6.632;2023-04-25T08:58:43;4.03;;;1.43;;
28529;SDS011;15737;49.760;6.632;2023-04-25T09:01:10;1.60;;;1.50;;
28529;SDS011;15737;49.760;6.632;2023-04-25T09:03:36;1.87;;;1.37;;
28529;SDS011;15737;49.760;6.632;2023-04-25T09:06:05;1.87;;;1.50;;
28529;SDS011;15737;49.760;6.632;2023-04-25T09:08:34;2.43;;;1.90;;
28529;SDS011;15737;49.760;6.632;2023-04-25T09:11:01;5.40;;;2.20;;
28529;SDS011;15737;49.760;6.632;2023-04-25T09:13:40;2.30;;;2.10;;
28529;SDS011;15737;49.760;6.632;2023-04-25T09:16:08;2.03;;;1.80;;
28529;SDS011;15737;49.760;6.632;2023-04-25T09:18:47;3.53;;;2.37;;
28529;SDS011;15737;49.760;6.632;2023-04-25T09:21:42;2.30;;;1.97;;
28529;SDS011;15737;49.760;6.632;2023-04-25T09:27:34;2.43;;;2.23;;
28529;SDS011;15737;49.760;6.632;2023-04-25T09:29:59;2.93;;;2.03;;
28529;SDS011;15737;49.760;6.632;2023-04-25T09:32:28;2.20;;;2.03;;
28529;SDS011;15737;49.760;6.632;2023-04-25T09:34:55;2.17;;;2.03;;
28529;SDS011;15737;49.760;6.632;2023-04-25T09:37:26;3.83;;;2.00;;
28529;SDS011;15737;49.760;6.632;2023-04-25T09:39:56;5.03;;;4.23;;
28529;SDS011;15737;49.760;6.632;2023-04-25T09:42:30;2.30;;;2.20;;
28529;SDS011;15737;49.760;6.632;2023-04-25T09:45:01;3.27;;;2.60;;
28529;SDS011;15737;49.760;6.632;2023-04-25T09:47:32;3.63;;;3.40;;
28529;SDS011;15737;49.760;6.632;2023-04-25T09:50:02;4.97;;;4.80;;
28529;SDS011;15737;49.760;6.632;2023-04-25T09:52:38;2.90;;;2.70;;
28529;SDS011;15737;49.760;6.632;2023-04-25T09:55:04;5.30;;;5.07;;
28529;SDS011;15737;49.760;6.632;2023-04-25T09:57:30;16.37;;;15.13;;
28529;SDS011;15737;49.760;6.632;2023-04-25T10:00:00;10.87;;;10.23;;
28529;SDS011;15737;49.760;6.632;2023-04-25T10:02:38;6.10;;;5.80;;
28529;SDS011;15737;49.760;6.632;2023-04-25T10:05:16;9.07;;;8.57;;
28529;SDS011;15737;49.760;6.632;2023-04-25T10:08:00;3.00;;;2.90;;
28529;SDS011;15737;49.760;6.632;2023-04-25T10:10:39;1.47;;;1.13;;
28529;SDS011;15737;49.760;6.632;2023-04-25T10:13:19;0.83;;;0.83;;
28529;SDS011;15737;49.760;6.632;2023-04-25T10:15:57;1.67;;;1.13;;
28529;SDS011;15737;49.760;6.632;2023-04-25T10:18:28;1.00;;;1.00;;
28529;SDS011;15737;49.760;6.632;2023-04-25T10:20:54;1.43;;;1.03;;
28529;SDS011;15737;49.760;6.632;2023-04-25T10:23:25;1.63;;;1.17;;
28529;SDS011;15737;49.760;6.632;2023-04-25T10:25:51;2.97;;;1.20;;
28529;SDS011;15737;49.760;6.632;2023-04-25T10:28:17;5.77;;;5.37;;
28529;SDS011;15737;49.760;6.632;2023-04-25T10:30:59;2.67;;;2.57;;
28529;SDS011;15737;49.760;6.632;2023-04-25T10:33:30;2.03;;;1.17;;
28529;SDS011;15737;49.760;6.632;2023-04-25T10:35:58;2.53;;;1.20;;
28529;SDS011;15737;49.760;6.632;2023-04-25T10:38:33;2.60;;;1.17;;
28529;SDS011;15737;49.760;6.632;2023-04-25T10:41:05;23.23;;;22.20;;
28529;SDS011;15737;49.760;6.632;2023-04-25T10:46:26;49.63;;;47.43;;
28529;SDS011;15737;49.760;6.632;2023-04-25T10:48:56;22.87;;;21.90;;
28529;SDS011;15737;49.760;6.632;2023-04-25T10:56:21;27.10;;;25.77;;
28529;SDS011;15737;49.760;6.632;2023-04-25T10:58:48;7.67;;;7.23;;
28529;SDS011;15737;49.760;6.632;2023-04-25T11:01:14;1.40;;;1.30;;
28529;SDS011;15737;49.760;6.632;2023-04-25T11:03:44;6.83;;;6.53;;
28529;SDS011;15737;49.760;6.632;2023-04-25T11:06:23;44.43;;;42.23;;
28529;SDS011;15737;49.760;6.632;2023-04-25T11:09:11;36.80;;;34.87;;
28529;SDS011;15737;49.760;6.632;2023-04-25T11:11:40;1.45;;;1.08;;
28529;SDS011;15737;49.760;6.632;2023-04-25T11:14:06;1.10;;;1.00;;
28529;SDS011;15737;49.760;6.632;2023-04-25T11:16:31;1.50;;;1.40;;
28529;SDS011;15737;49.760;6.632;2023-04-25T11:18:57;1.42;;;1.10;;
28529;SDS011;15737;49.760;6.632;2023-04-25T11:21:25;2.15;;;1.20;;
28529;SDS011;15737;49.760;6.632;2023-04-25T11:23:53;2.65;;;1.30;;
28529;SDS011;15737;49.760;6.632;2023-04-25T11:26:19;1.45;;;1.08;;
28529;SDS011;15737;49.760;6.632;2023-04-25T11:28:49;1.98;;;1.02;;
28529;SDS011;15737;49.760;6.632;2023-04-25T11:31:15;4.55;;;1.20;;
28529;SDS011;15737;49.760;6.632;2023-04-25T11:33:40;1.30;;;1.00;;
28529;SDS011;15737;49.760;6.632;2023-04-25T11:36:07;1.60;;;1.33;;
28529;SDS011;15737;49.760;6.632;2023-04-25T11:38:33;1.10;;;1.10;;
28529;SDS011;15737;49.760;6.632;2023-04-25T11:40:59;1.33;;;1.20;;
28529;SDS011;15737;49.760;6.632;2023-04-25T11:43:25;1.20;;;1.10;;
28529;SDS011;15737;49.760;6.632;2023-04-25T11:45:51;1.93;;;1.30;;
28529;SDS011;15737;49.760;6.632;2023-04-25T11:48:17;2.53;;;1.23;;
28529;SDS011;15737;49.760;6.632;2023-04-25T11:50:43;1.53;;;1.30;;
28529;SDS011;15737;49.760;6.632;2023-04-25T11:53:09;0.80;;;0.80;;
28529;SDS011;15737;49.760;6.632;2023-04-25T11:55:37;1.20;;;1.17;;
28529;SDS011;15737;49.760;6.632;2023-04-25T11:58:09;3.13;;;1.10;;
28529;SDS011;15737;49.760;6.632;2023-04-25T12:00:49;3.30;;;1.43;;
28529;SDS011;15737;49.760;6.632;2023-04-25T12:03:15;1.23;;;1.00;;
28529;SDS011;15737;49.760;6.632;2023-04-25T12:05:45;2.53;;;1.23;;
28529;SDS011;15737;49.760;6.632;2023-04-25T12:08:20;3.23;;;1.10;;
28529;SDS011;15737;49.760;6.632;2023-04-25T12:11:03;1.30;;;1.00;;
28529;SDS011;15737;49.760;6.632;2023-04-25T12:13:55;2.60;;;1.40;;
28529;SDS011;15737;49.760;6.632;2023-04-25T12:16:44;1.63;;;1.13;;
28529;SDS011;15737;49.760;6.632;2023-04-25T12:19:20;2.60;;;1.60;;
28529;SDS011;15737;49.760;6.632;2023-04-25T12:21:56;2.30;;;1.00;;
28529;SDS011;15737;49.760;6.632;2023-04-25T12:24:33;2.17;;;1.27;;
28529;SDS011;15737;49.760;6.632;2023-04-25T12:27:15;2.17;;;1.23;;
28529;SDS011;15737;49.760;6.632;2023-04-25T12:30:00;1.80;;;1.00;;
28529;SDS011;15737;49.760;6.632;2023-04-25T12:32:42;3.10;;;0.87;;
28529;SDS011;15737;49.760;6.632;2023-04-25T12:35:35;3.37;;;1.50;;
28529;SDS011;15737;49.760;6.632;2023-04-25T12:38:09;1.83;;;0.90;;
28529;SDS011;15737;49.760;6.632;2023-04-25T12:41:03;4.97;;;1.10;;
28529;SDS011;15737;49.760;6.632;2023-04-25T12:43:42;2.77;;;1.13;;
28529;SDS011;15737;49.760;6.632;2023-04-25T12:46:24;3.30;;;1.30;;
28529;SDS011;15737;49.760;6.632;2023-04-25T12:49:05;1.33;;;1.20;;
28529;SDS011;15737;49.760;6.632;2023-04-25T12:51:39;1.40;;;1.30;;
28529;SDS011;15737;49.760;6.632;2023-04-25T12:54:18;0.97;;;0.90;;
28529;SDS011;15737;49.760;6.632;2023-04-25T12:56:58;3.43;;;1.00;;
28529;SDS011;15737;49.760;6.632;2023-04-25T12:59:37;3.43;;;1.13;;
28529;SDS011;15737;49.760;6.632;2023-04-25T13:02:12;1.17;;;1.07;;
28529;SDS011;15737;49.760;6.632;2023-04-25T13:04:52;1.30;;;1.17;;
28529;SDS011;15737;49.760;6.632;2023-04-25T13:07:28;1.10;;;1.00;;
28529;SDS011;15737;49.760;6.632;2023-04-25T13:10:05;1.47;;;1.13;;
28529;SDS011;15737;49.760;6.632;2023-04-25T13:12:45;2.33;;;2.17;;
28529;SDS011;15737;49.760;6.632;2023-04-25T13:15:24;3.97;;;1.40;;
28529;SDS011;15737;49.760;6.632;2023-04-25T13:17:59;1.43;;;0.87;;
28529;SDS011;15737;49.760;6.632;2023-04-25T13:22:59;1.27;;;0.90;;
28529;SDS011;15737;49.760;6.632;2023-04-25T13:25:33;1.63;;;0.80;;
28529;SDS011;15737;49.760;6.632;2023-04-25T13:28:11;3.97;;;1.03;;
28529;SDS011;15737;49.760;6.632;2023-04-25T13:30:49;2.27;;;1.00;;
28529;SDS011;15737;49.760;6.632;2023-04-25T13:33:28;0.77;;;0.77;;
28529;SDS011;15737;49.760;6.632;2023-04-25T13:36:10;3.13;;;0.85;;
28529;SDS011;15737;49.760;6.632;2023-04-25T13:38:49;1.38;;;0.90;;
28529;SDS011;15737;49.760;6.632;2023-04-25T13:41:29;1.45;;;1.05;;
28529;SDS011;15737;49.760;6.632;2023-04-25T13:44:11;1.40;;;0.85;;
28529;SDS011;15737;49.760;6.632;2023-04-25T13:46:47;1.03;;;0.80;;
28529;SDS011;15737;49.760;6.632;2023-04-25T13:49:23;0.80;;;0.80;;
28529;SDS011;15737;49.760;6.632;2023-04-25T13:51:56;0.77;;;0.77;;
28529;SDS011;15737;49.760;6.632;2023-04-25T13:54:35;1.43;;;0.90;;
28529;SDS011;15737;49.760;6.632;2023-04-25T13:57:00;1.43;;;0.80;;
28529;SDS011;15737;49.760;6.632;2023-04-25T13:59:26;1.37;;;0.77;;
28529;SDS011;15737;49.760;6.632;2023-04-25T14:01:52;0.70;;;0.70;;
28529;SDS011;15737;49.760;6.632;2023-04-25T14:04:18;0.83;;;0.50;;
28529;SDS011;15737;49.760;6.632;2023-04-25T14:06:43;2.03;;;0.80;;
28529;SDS011;15737;49.760;6.632;2023-04-25T14:09:09;1.53;;;1.10;;
28529;SDS011;15737;49.760;6.632;2023-04-25T14:11:38;1.90;;;0.90;;
28529;SDS011;15737;49.760;6.632;2023-04-25T14:14:04;4.67;;;1.00;;
28529;SDS011;15737;49.760;6.632;2023-04-25T14:16:30;1.43;;;0.97;;
28529;SDS011;15737;49.760;6.632;2023-04-25T14:18:58;1.17;;;0.90;;
28529;SDS011;15737;49.760;6.632;2023-04-25T14:21:25;2.23;;;0.67;;
28529;SDS011;15737;49.760;6.632;2023-04-25T14:23:52;3.47;;;1.00;;
28529;SDS011;15737;49.760;6.632;2023-04-25T14:26:18;1.10;;;0.90;;
28529;SDS011;15737;49.760;6.632;2023-04-25T14:28:44;2.23;;;1.00;;
28529;SDS011;15737;49.760;6.632;2023-04-25T14:31:10;0.40;;;0.40;;
28529;SDS011;15737;49.760;6.632;2023-04-25T14:33:35;3.53;;;0.90;;
28529;SDS011;15737;49.760;6.632;2023-04-25T14:36:02;0.53;;;0.53;;
28529;SDS011;15737;49.760;6.632;2023-04-25T14:38:30;2.53;;;0.80;;
28529;SDS011;15737;49.760;6.632;2023-04-25T14:41:09;1.40;;;0.70;;
28529;SDS011;15737;49.760;6.632;2023-04-25T14:43:45;0.68;;;0.68;;
28529;SDS011;15737;49.760;6.632;2023-04-25T14:46:23;0.98;;;0.90;;
28529;SDS011;15737;49.760;6.632;2023-04-25T14:49:05;1.05;;;0.63;;
28529;SDS011;15737;49.760;6.632;2023-04-25T14:51:42;2.22;;;0.90;;
28529;SDS011;15737;49.760;6.632;2023-04-25T14:54:16;3.28;;;1.00;;
28529;SDS011;15737;49.760;6.632;2023-04-25T14:56:42;1.10;;;0.73;;
28529;SDS011;15737;49.760;6.632;2023-04-25T14:59:07;1.17;;;1.05;;
28529;SDS011;15737;49.760;6.632;2023-04-25T15:01:33;1.08;;;0.98;;
28529;SDS011;15737;49.760;6.632;2023-04-25T15:03:59;0.73;;;0.70;;
28529;SDS011;15737;49.760;6.632;2023-04-25T15:06:25;2.72;;;0.95;;
28529;SDS011;15737;49.760;6.632;2023-04-25T15:08:52;1.45;;;1.02;;
28529;SDS011;15737;49.760;6.632;2023-04-25T15:11:18;1.67;;;0.90;;